Time;durP1;ratioP1;P1;durP2;ratioP2;P2;SDS_P1;SDS_P2;PMS_P1;PMS_P2;Temp;Humidity;BMP_temperature;BMP_pressure;BME280_temperature;BME280_humidity;BME280_pressure;Samples;Min_cycle;Max_cycle;Signal;HPM_P1;HPM_P2
2023/09/04 00:01:11;;;;;;;382.33;370.90;;;;;;;;;;5031076;28;20223;-92
2023/09/04 00:03:37;;;;;;;385.80;374.33;;;;;;;;;;5030219;28;20182;-91
2023/09/04 00:06:04;;;;;;;378.08;366.83;;;;;;;;;;5030865;28;20177;-93
2023/09/04 00:08:30;;;;;;;367.05;356.25;;;;;;;;;;5031115;28;20185;-93
2023/09/04 00:10:56;;;;;;;361.08;350.35;;;;;;;;;;5034792;28;20205;-93
2023/09/04 00:13:22;;;;;;;340.92;330.45;;;;;;;;;;5040021;28;20222;-96
2023/09/04 00:15:48;;;;;;;326.00;316.52;;;;;;;;;;5039894;28;20228;-96
2023/09/04 00:18:14;;;;;;;272.55;264.38;;;;;;;;;;5039575;28;20184;-93
2023/09/04 00:20:40;;;;;;;245.32;238.00;;;;;;;;;;5039128;28;20199;-92
2023/09/04 00:23:06;;;;;;;241.40;234.30;;;;;;;;;;5034993;28;20182;-90
2023/09/04 00:25:32;;;;;;;225.47;218.80;;;;;;;;;;5031986;28;20187;-89
2023/09/04 00:27:58;;;;;;;227.07;220.27;;;;;;;;;;5032334;28;20188;-92
2023/09/04 00:30:25;;;;;;;235.88;228.93;;;;;;;;;;5032229;28;20272;-91
2023/09/04 00:32:52;;;;;;;216.07;209.67;;;;;;;;;;5032816;28;20185;-90
2023/09/04 00:35:19;;;;;;;210.93;204.60;;;;;;;;;;5031651;28;20203;-92
2023/09/04 00:37:45;;;;;;;242.25;235.13;;;;;;;;;;5031896;28;20206;-92
2023/09/04 00:40:11;;;;;;;252.40;244.93;;;;;;;;;;5032516;28;20223;-90
2023/09/04 00:42:37;;;;;;;237.32;229.82;;;;;;;;;;5031705;28;20186;-92
2023/09/04 00:45:04;;;;;;;229.77;222.97;;;;;;;;;;5033032;28;20542;-91
2023/09/04 00:47:31;;;;;;;240.33;233.33;;;;;;;;;;5033989;28;20211;-92
2023/09/04 00:49:57;;;;;;;243.33;236.23;;;;;;;;;;5034200;28;20203;-91
2023/09/04 00:52:24;;;;;;;245.27;238.13;;;;;;;;;;5036708;28;20180;-94
2023/09/04 00:54:50;;;;;;;227.17;220.27;;;;;;;;;;5036926;28;20269;-92
2023/09/04 00:57:16;;;;;;;201.17;194.90;;;;;;;;;;5038871;28;20178;-92
2023/09/04 00:59:43;;;;;;;208.10;201.88;;;;;;;;;;5037741;28;20190;-91
2023/09/04 01:02:11;;;;;;;216.50;209.87;;;;;;;;;;5038426;28;20204;-93
2023/09/04 01:04:37;;;;;;;181.33;175.73;;;;;;;;;;5038362;28;20171;-89
2023/09/04 01:07:03;;;;;;;181.10;175.60;;;;;;;;;;5038576;28;20243;-93
2023/09/04 01:09:29;;;;;;;180.93;175.27;;;;;;;;;;5036612;28;20202;-91
2023/09/04 01:11:58;;;;;;;179.97;174.50;;;;;;;;;;5034301;28;20209;-91
2023/09/04 01:14:25;;;;;;;201.80;195.87;;;;;;;;;;5034941;28;20211;-91
2023/09/04 01:16:52;;;;;;;218.00;211.53;;;;;;;;;;5036653;28;20190;-93
2023/09/04 01:19:18;;;;;;;214.60;208.27;;;;;;;;;;5019925;28;20209;-93
2023/09/04 01:21:45;;;;;;;180.13;174.60;;;;;;;;;;5034573;28;20176;-90
2023/09/04 01:24:11;;;;;;;161.73;156.73;;;;;;;;;;5036392;28;20281;-91
2023/09/04 01:26:41;;;;;;;148.67;144.07;;;;;;;;;;5018645;28;20174;-92
2023/09/04 01:29:19;;;;;;;147.87;143.37;;;;;;;;;;5035002;28;20159;-90
2023/09/04 01:31:48;;;;;;;147.60;143.00;;;;;;;;;;5034531;28;20173;-91
2023/09/04 01:34:25;;;;;;;164.47;159.43;;;;;;;;;;5017589;28;20213;-92
2023/09/04 01:36:52;;;;;;;158.33;153.53;;;;;;;;;;5034931;28;20170;-91
2023/09/04 01:39:19;;;;;;;159.73;154.80;;;;;;;;;;5016923;28;20185;-91
2023/09/04 01:41:45;;;;;;;160.53;155.57;;;;;;;;;;5035508;28;20190;-91
2023/09/04 01:44:13;;;;;;;162.50;157.60;;;;;;;;;;5017675;28;20191;-91
2023/09/04 01:46:39;;;;;;;164.80;159.77;;;;;;;;;;5034735;28;20167;-91
2023/09/04 01:49:05;;;;;;;162.23;157.10;;;;;;;;;;5034873;28;20197;-92
2023/09/04 01:51:31;;;;;;;162.83;157.63;;;;;;;;;;5035714;28;20177;-90
2023/09/04 01:53:57;;;;;;;160.03;155.10;;;;;;;;;;5034582;28;20185;-92
2023/09/04 01:56:23;;;;;;;155.80;150.87;;;;;;;;;;5017591;28;20176;-92
2023/09/04 01:58:49;;;;;;;157.67;152.83;;;;;;;;;;5034835;28;20184;-92
2023/09/04 02:01:15;;;;;;;158.40;153.37;;;;;;;;;;5017402;28;20221;-92
2023/09/04 02:03:47;;;;;;;169.67;164.40;;;;;;;;;;5035362;28;20175;-91
2023/09/04 02:06:13;;;;;;;164.53;159.47;;;;;;;;;;5085528;22;21241;-93
2023/09/04 02:08:39;;;;;;;168.47;163.30;;;;;;;;;;5055567;28;20184;-91
2023/09/04 02:11:05;;;;;;;176.67;171.33;;;;;;;;;;5036662;28;20228;-93
2023/09/04 02:13:31;;;;;;;170.77;165.57;;;;;;;;;;5054532;28;20193;-92
2023/09/04 02:15:57;;;;;;;163.33;158.17;;;;;;;;;;5053344;28;20259;-91
2023/09/04 02:18:27;;;;;;;168.10;162.97;;;;;;;;;;5054184;28;20171;-91
2023/09/04 02:20:53;;;;;;;163.40;158.40;;;;;;;;;;5052416;28;20205;-93
2023/09/04 02:23:19;;;;;;;161.43;156.37;;;;;;;;;;5053643;28;20181;-93
2023/09/04 02:25:48;;;;;;;172.73;166.90;;;;;;;;;;5052865;28;20200;-91
2023/09/04 02:28:16;;;;;;;169.90;164.70;;;;;;;;;;5053442;28;20189;-92
2023/09/04 02:30:42;;;;;;;172.17;166.93;;;;;;;;;;5053296;28;20201;-91
2023/09/04 02:33:08;;;;;;;175.47;170.13;;;;;;;;;;5052986;28;20181;-93
2023/09/04 02:35:34;;;;;;;170.70;165.40;;;;;;;;;;5052537;28;20201;-93
2023/09/04 02:38:00;;;;;;;169.07;163.97;;;;;;;;;;5053372;28;20174;-91
2023/09/04 02:40:26;;;;;;;159.53;154.63;;;;;;;;;;5052372;28;20202;-91
2023/09/04 02:42:53;;;;;;;167.20;162.13;;;;;;;;;;5053681;28;20173;-90
2023/09/04 02:45:19;;;;;;;178.60;173.20;;;;;;;;;;5053580;28;20209;-91
2023/09/04 02:47:45;;;;;;;178.10;172.60;;;;;;;;;;5052881;28;20352;-93
2023/09/04 02:50:11;;;;;;;172.33;167.07;;;;;;;;;;5052523;28;20208;-93
2023/09/04 02:52:37;;;;;;;168.40;163.33;;;;;;;;;;5052136;28;20204;-91
2023/09/04 02:55:04;;;;;;;164.87;159.87;;;;;;;;;;5052036;28;20199;-91
2023/09/04 02:57:31;;;;;;;167.27;162.07;;;;;;;;;;5052355;28;20204;-91
2023/09/04 02:59:58;;;;;;;175.67;170.37;;;;;;;;;;5052968;28;20204;-91
2023/09/04 03:02:24;;;;;;;170.00;164.80;;;;;;;;;;5052088;28;20169;-92
2023/09/04 03:04:54;;;;;;;174.77;169.43;;;;;;;;;;5052432;28;20192;-91
2023/09/04 03:07:21;;;;;;;188.57;182.77;;;;;;;;;;5052573;28;20205;-92
2023/09/04 03:09:47;;;;;;;173.53;168.27;;;;;;;;;;5052380;28;20207;-91
2023/09/04 03:12:13;;;;;;;171.37;166.23;;;;;;;;;;5053353;28;20181;-92
2023/09/04 03:14:39;;;;;;;160.93;155.93;;;;;;;;;;5053849;28;20699;-91
2023/09/04 03:17:05;;;;;;;175.43;169.97;;;;;;;;;;5053631;28;20173;-92
2023/09/04 03:19:31;;;;;;;179.37;173.73;;;;;;;;;;5052499;28;20168;-91
2023/09/04 03:21:58;;;;;;;172.87;167.57;;;;;;;;;;5053821;28;20165;-91
2023/09/04 03:24:24;;;;;;;169.90;164.73;;;;;;;;;;5052486;28;20188;-91
2023/09/04 03:26:50;;;;;;;170.40;165.30;;;;;;;;;;5052080;28;20177;-90
2023/09/04 03:29:16;;;;;;;168.90;163.57;;;;;;;;;;5052369;28;20280;-91
2023/09/04 03:31:43;;;;;;;170.30;164.93;;;;;;;;;;5052010;28;20240;-92
2023/09/04 03:34:09;;;;;;;168.00;162.63;;;;;;;;;;5052622;28;20187;-92
2023/09/04 03:36:35;;;;;;;167.40;162.27;;;;;;;;;;5053951;28;20207;-93
2023/09/04 03:39:03;;;;;;;181.43;175.93;;;;;;;;;;5058468;28;20159;-90
2023/09/04 03:41:30;;;;;;;161.47;156.47;;;;;;;;;;5060687;28;20199;-94
2023/09/04 03:43:56;;;;;;;165.60;160.63;;;;;;;;;;5056112;28;20173;-92
2023/09/04 03:46:22;;;;;;;171.87;166.70;;;;;;;;;;5052430;28;20209;-91
2023/09/04 03:48:49;;;;;;;182.33;176.90;;;;;;;;;;5054971;28;20191;-92
2023/09/04 03:51:15;;;;;;;174.63;169.27;;;;;;;;;;5055292;28;20473;-92
2023/09/04 03:53:41;;;;;;;175.00;169.47;;;;;;;;;;5057073;28;20175;-91
2023/09/04 03:56:08;;;;;;;170.83;165.33;;;;;;;;;;5055963;28;20261;-91
2023/09/04 03:58:34;;;;;;;168.60;163.47;;;;;;;;;;5056147;28;20232;-96
2023/09/04 04:01:00;;;;;;;164.50;159.47;;;;;;;;;;5056419;28;20217;-95
2023/09/04 04:03:26;;;;;;;160.67;155.60;;;;;;;;;;5058414;28;20170;-91
2023/09/04 04:05:52;;;;;;;164.17;159.10;;;;;;;;;;5058992;28;20173;-90
2023/09/04 04:08:18;;;;;;;165.33;160.17;;;;;;;;;;5059454;28;20200;-91
2023/09/04 04:10:44;;;;;;;160.27;155.27;;;;;;;;;;5050862;28;20205;-91
2023/09/04 04:13:11;;;;;;;167.27;162.17;;;;;;;;;;5046517;28;20168;-90
2023/09/04 04:15:38;;;;;;;155.20;150.33;;;;;;;;;;5058410;28;20206;-92
2023/09/04 04:18:05;;;;;;;164.53;159.50;;;;;;;;;;5056392;28;20178;-90
2023/09/04 04:20:31;;;;;;;159.07;154.23;;;;;;;;;;5037036;28;20200;-90
2023/09/04 04:22:57;;;;;;;161.97;156.90;;;;;;;;;;5034708;28;20170;-91
2023/09/04 04:25:31;;;;;;;157.90;153.07;;;;;;;;;;5035819;28;20196;-91
2023/09/04 04:27:57;;;;;;;160.90;155.67;;;;;;;;;;5035457;28;20168;-91
2023/09/04 04:30:23;;;;;;;157.07;151.67;;;;;;;;;;5036445;28;20214;-92
2023/09/04 04:32:50;;;;;;;163.13;158.03;;;;;;;;;;5034318;28;20189;-92
2023/09/04 04:35:16;;;;;;;152.50;147.67;;;;;;;;;;5025570;28;20216;-91
2023/09/04 04:37:42;;;;;;;153.60;148.80;;;;;;;;;;5025825;28;20173;-91
2023/09/04 04:40:09;;;;;;;156.77;151.87;;;;;;;;;;5025707;28;20267;-91
2023/09/04 04:42:35;;;;;;;147.53;142.53;;;;;;;;;;5025638;28;20171;-89
2023/09/04 04:45:02;;;;;;;150.53;145.90;;;;;;;;;;5025332;28;20175;-94
2023/09/04 04:47:28;;;;;;;151.43;146.73;;;;;;;;;;5034794;28;20190;-92
2023/09/04 04:49:54;;;;;;;146.23;141.60;;;;;;;;;;5043470;28;20231;-91
2023/09/04 04:52:20;;;;;;;155.73;150.77;;;;;;;;;;5044203;28;20246;-91
2023/09/04 04:54:46;;;;;;;151.37;146.70;;;;;;;;;;5043808;28;20208;-91
2023/09/04 04:57:12;;;;;;;155.70;150.93;;;;;;;;;;5045620;28;20267;-92
2023/09/04 04:59:38;;;;;;;147.00;142.27;;;;;;;;;;5046052;28;20779;-91
2023/09/04 05:02:04;;;;;;;154.90;150.10;;;;;;;;;;5038862;28;20212;-93
2023/09/04 05:04:30;;;;;;;150.70;145.97;;;;;;;;;;5016878;28;20209;-92
2023/09/04 05:06:56;;;;;;;165.63;160.30;;;;;;;;;;5051116;28;20180;-92
2023/09/04 05:09:22;;;;;;;158.20;153.30;;;;;;;;;;5050988;28;20204;-92
2023/09/04 05:11:48;;;;;;;158.83;153.93;;;;;;;;;;5050104;28;20185;-91
2023/09/04 05:14:14;;;;;;;158.13;153.23;;;;;;;;;;5050478;28;20252;-91
2023/09/04 05:16:40;;;;;;;153.33;148.53;;;;;;;;;;5047851;28;20181;-90
2023/09/04 05:19:07;;;;;;;149.03;144.20;;;;;;;;;;5048788;28;20195;-90
2023/09/04 05:21:33;;;;;;;155.37;150.57;;;;;;;;;;5048194;28;20198;-90
2023/09/04 05:23:59;;;;;;;161.33;156.27;;;;;;;;;;5048205;28;20278;-89
2023/09/04 05:26:25;;;;;;;163.07;158.00;;;;;;;;;;5042068;28;20185;-91
2023/09/04 05:28:51;;;;;;;154.97;150.20;;;;;;;;;;5045102;28;20185;-90
2023/09/04 05:31:17;;;;;;;160.47;155.57;;;;;;;;;;5030732;28;20209;-91
2023/09/04 05:33:43;;;;;;;158.37;153.53;;;;;;;;;;5029528;28;20199;-91
2023/09/04 05:36:10;;;;;;;175.53;170.20;;;;;;;;;;5042720;28;20213;-92
2023/09/04 05:38:36;;;;;;;178.87;173.33;;;;;;;;;;5043895;28;20217;-92
2023/09/04 05:41:03;;;;;;;160.03;154.97;;;;;;;;;;5030004;28;20489;-90
2023/09/04 05:43:29;;;;;;;165.10;160.00;;;;;;;;;;5043923;28;20187;-89
2023/09/04 05:45:55;;;;;;;158.43;153.43;;;;;;;;;;5047075;28;20191;-92
2023/09/04 05:48:21;;;;;;;183.33;177.83;;;;;;;;;;5046449;28;20244;-88
2023/09/04 05:50:47;;;;;;;185.73;180.13;;;;;;;;;;5046857;28;20260;-93
2023/09/04 05:53:13;;;;;;;184.33;178.63;;;;;;;;;;5049141;28;20235;-90
2023/09/04 05:55:42;;;;;;;174.13;168.77;;;;;;;;;;5049244;28;20207;-92
2023/09/04 05:58:08;;;;;;;184.17;178.60;;;;;;;;;;5048601;28;20647;-93
2023/09/04 06:00:34;;;;;;;184.27;178.67;;;;;;;;;;5032349;28;20198;-92
2023/09/04 06:03:00;;;;;;;175.63;170.17;;;;;;;;;;5042679;28;20674;-91
2023/09/04 06:05:26;;;;;;;196.20;190.30;;;;;;;;;;5046101;28;20220;-91
2023/09/04 06:07:52;;;;;;;192.00;186.23;;;;;;;;;;5045133;28;20199;-91
2023/09/04 06:10:18;;;;;;;199.80;193.77;;;;;;;;;;5039114;28;20260;-91
2023/09/04 06:12:44;;;;;;;195.30;189.50;;;;;;;;;;5044213;28;20203;-92
2023/09/04 06:15:10;;;;;;;195.50;189.67;;;;;;;;;;5046919;28;20264;-91
2023/09/04 06:17:36;;;;;;;197.20;191.30;;;;;;;;;;5039423;28;20257;-96
2023/09/04 06:20:03;;;;;;;203.90;197.37;;;;;;;;;;5037437;28;20186;-96
2023/09/04 06:22:29;;;;;;;202.13;196.23;;;;;;;;;;5071043;23;20228;-93
2023/09/04 06:24:55;;;;;;;200.23;194.23;;;;;;;;;;5036634;28;20166;-91
2023/09/04 06:27:21;;;;;;;202.33;196.37;;;;;;;;;;5018317;28;20211;-90
2023/09/04 06:29:47;;;;;;;189.93;184.23;;;;;;;;;;5032848;28;20205;-90
2023/09/04 06:32:14;;;;;;;194.20;188.37;;;;;;;;;;5015971;28;20219;-91
2023/09/04 06:34:40;;;;;;;192.03;186.30;;;;;;;;;;5011832;28;20289;-92
2023/09/04 06:37:06;;;;;;;183.70;178.27;;;;;;;;;;5011987;28;20182;-91
2023/09/04 06:39:32;;;;;;;176.13;170.87;;;;;;;;;;5013738;28;20196;-94
2023/09/04 06:41:58;;;;;;;194.00;188.17;;;;;;;;;;5022958;28;20238;-90
2023/09/04 06:44:25;;;;;;;173.90;168.70;;;;;;;;;;5021868;28;20227;-90
2023/09/04 06:46:51;;;;;;;155.43;150.67;;;;;;;;;;5020339;28;20181;-92
2023/09/04 06:49:17;;;;;;;144.03;139.47;;;;;;;;;;5020804;28;20258;-91
2023/09/04 06:51:43;;;;;;;144.20;139.70;;;;;;;;;;5018613;28;20200;-90
2023/09/04 06:54:09;;;;;;;145.50;141.07;;;;;;;;;;5024748;28;20189;-91
2023/09/04 06:56:35;;;;;;;145.03;140.53;;;;;;;;;;5026791;28;20181;-89
2023/09/04 06:59:01;;;;;;;147.93;143.23;;;;;;;;;;5026393;28;20254;-91
2023/09/04 07:01:27;;;;;;;171.48;166.27;;;;;;;;;;5011430;28;20208;-92
2023/09/04 07:03:53;;;;;;;212.25;205.93;;;;;;;;;;5006803;28;20216;-93
2023/09/04 07:06:20;;;;;;;227.32;220.43;;;;;;;;;;5005629;28;20267;-90
2023/09/04 07:08:46;;;;;;;261.48;253.85;;;;;;;;;;5002276;28;20187;-91
2023/09/04 07:11:12;;;;;;;278.08;270.08;;;;;;;;;;5000760;28;20209;-92
2023/09/04 07:13:38;;;;;;;294.27;285.80;;;;;;;;;;5003149;28;20189;-92
2023/09/04 07:16:04;;;;;;;297.08;288.52;;;;;;;;;;5002538;28;20320;-91
2023/09/04 07:18:30;;;;;;;306.88;297.95;;;;;;;;;;5005602;28;20185;-90
2023/09/04 07:20:57;;;;;;;301.00;292.05;;;;;;;;;;5022511;28;20208;-91
2023/09/04 07:23:27;;;;;;;305.20;296.23;;;;;;;;;;5022423;28;20195;-90
2023/09/04 07:25:57;;;;;;;314.15;305.20;;;;;;;;;;5021489;28;20220;-91
2023/09/04 07:28:23;;;;;;;341.27;330.67;;;;;;;;;;5020669;28;20181;-89
2023/09/04 07:30:49;;;;;;;356.10;344.85;;;;;;;;;;5002803;28;20202;-91
2023/09/04 07:33:15;;;;;;;379.17;367.95;;;;;;;;;;5003519;28;20182;-90
2023/09/04 07:35:41;;;;;;;385.95;374.35;;;;;;;;;;5006423;28;20198;-90
2023/09/04 07:38:07;;;;;;;420.23;407.50;;;;;;;;;;5014665;28;20172;-93
2023/09/04 07:40:34;;;;;;;427.90;414.55;;;;;;;;;;5012894;28;20608;-90
2023/09/04 07:43:01;;;;;;;471.45;456.80;;;;;;;;;;5004680;28;20174;-90
2023/09/04 07:45:27;;;;;;;456.95;442.58;;;;;;;;;;5003159;28;20209;-92
2023/09/04 07:47:53;;;;;;;470.85;456.05;;;;;;;;;;5005139;28;20190;-90
2023/09/04 07:50:19;;;;;;;461.52;447.08;;;;;;;;;;5005061;28;20202;-91
2023/09/04 07:52:45;;;;;;;464.05;449.70;;;;;;;;;;5005167;28;20187;-90
2023/09/04 07:55:11;;;;;;;443.05;429.52;;;;;;;;;;5003234;28;20194;-91
2023/09/04 07:57:38;;;;;;;456.10;441.88;;;;;;;;;;5003370;28;20178;-89
2023/09/04 08:00:04;;;;;;;482.95;467.52;;;;;;;;;;5006358;28;20206;-90
2023/09/04 08:02:31;;;;;;;428.45;415.35;;;;;;;;;;5004162;28;20182;-90
2023/09/04 08:04:57;;;;;;;426.67;413.60;;;;;;;;;;5011629;28;20271;-89
2023/09/04 08:07:24;;;;;;;408.67;396.33;;;;;;;;;;5023870;28;20197;-92
2023/09/04 08:09:50;;;;;;;416.10;403.55;;;;;;;;;;5032131;28;20207;-91
2023/09/04 08:12:16;;;;;;;431.92;418.52;;;;;;;;;;5026263;28;20204;-91
2023/09/04 08:14:43;;;;;;;383.52;372.08;;;;;;;;;;5022466;28;20288;-90
2023/09/04 08:17:09;;;;;;;355.98;345.40;;;;;;;;;;5022503;28;20700;-90
2023/09/04 08:19:38;;;;;;;378.70;367.27;;;;;;;;;;5023265;28;20184;-90
2023/09/04 08:22:04;;;;;;;334.63;324.85;;;;;;;;;;5010127;28;20730;-90
2023/09/04 08:24:30;;;;;;;326.67;317.13;;;;;;;;;;5001864;28;20178;-91
2023/09/04 08:26:56;;;;;;;329.50;320.20;;;;;;;;;;5001576;28;20240;-90
2023/09/04 08:29:22;;;;;;;383.98;372.52;;;;;;;;;;5000927;28;20633;-91
2023/09/04 08:31:48;;;;;;;375.58;364.65;;;;;;;;;;5013827;28;20196;-91
2023/09/04 08:34:14;;;;;;;424.27;411.65;;;;;;;;;;5015414;28;20201;-90
2023/09/04 08:36:40;;;;;;;492.25;476.88;;;;;;;;;;5002496;28;20178;-90
2023/09/04 08:39:06;;;;;;;485.50;470.13;;;;;;;;;;5001823;28;20175;-90
2023/09/04 08:41:32;;;;;;;486.73;471.52;;;;;;;;;;5020525;28;20197;-90
2023/09/04 08:43:59;;;;;;;488.10;472.83;;;;;;;;;;5021707;28;20182;-91
2023/09/04 08:46:25;;;;;;;490.23;474.65;;;;;;;;;;5021712;28;20671;-91
2023/09/04 08:48:52;;;;;;;513.15;496.98;;;;;;;;;;5021097;28;20256;-90
2023/09/04 08:51:18;;;;;;;503.08;487.23;;;;;;;;;;5021579;28;20224;-91
2023/09/04 08:53:45;;;;;;;513.25;496.92;;;;;;;;;;5020713;28;20231;-90
2023/09/04 08:56:12;;;;;;;517.60;501.27;;;;;;;;;;5000194;28;20234;-90
2023/09/04 08:58:38;;;;;;;523.20;506.50;;;;;;;;;;5000398;28;20261;-91
2023/09/04 09:01:04;;;;;;;540.83;523.33;;;;;;;;;;4999895;28;20205;-91
2023/09/04 09:03:31;;;;;;;543.92;526.13;;;;;;;;;;5001109;28;20189;-92
2023/09/04 09:05:57;;;;;;;594.03;573.92;;;;;;;;;;5017448;28;20186;-92
2023/09/04 09:08:27;;;;;;;582.53;562.67;;;;;;;;;;5020001;28;20269;-90
2023/09/04 09:10:53;;;;;;;613.08;591.38;;;;;;;;;;5038470;28;20207;-91
2023/09/04 09:13:20;;;;;;;606.58;585.42;;;;;;;;;;5040714;28;20231;-91
2023/09/04 09:15:46;;;;;;;619.90;597.50;;;;;;;;;;5023466;28;20216;-89
2023/09/04 09:18:12;;;;;;;551.90;533.03;;;;;;;;;;5021349;28;20197;-89
2023/09/04 09:20:39;;;;;;;534.60;516.92;;;;;;;;;;5020288;28;20259;-91
2023/09/04 09:23:05;;;;;;;556.65;537.80;;;;;;;;;;5020765;28;20197;-91
2023/09/04 09:25:32;;;;;;;548.63;530.33;;;;;;;;;;5003845;28;20186;-91
2023/09/04 09:28:00;;;;;;;587.17;566.85;;;;;;;;;;5001830;28;20201;-92
2023/09/04 09:30:29;;;;;;;545.47;527.67;;;;;;;;;;5001528;28;20206;-92
2023/09/04 09:32:57;;;;;;;524.65;507.63;;;;;;;;;;4998150;28;20289;-91
2023/09/04 09:35:23;;;;;;;574.65;554.95;;;;;;;;;;4997896;28;20199;-90
2023/09/04 09:37:49;;;;;;;524.00;507.17;;;;;;;;;;5014952;28;20182;-91
2023/09/04 09:40:15;;;;;;;483.48;468.23;;;;;;;;;;5018283;28;20228;-92
2023/09/04 09:42:41;;;;;;;572.83;553.25;;;;;;;;;;5018706;28;20204;-90
2023/09/04 09:45:08;;;;;;;487.73;472.27;;;;;;;;;;5019106;28;20201;-90
2023/09/04 09:47:34;;;;;;;511.02;494.52;;;;;;;;;;5018555;28;20177;-91
2023/09/04 09:50:00;;;;;;;465.50;450.88;;;;;;;;;;5018320;28;20205;-91
2023/09/04 09:52:26;;;;;;;454.48;440.65;;;;;;;;;;5018888;28;20650;-90
2023/09/04 09:54:52;;;;;;;453.02;439.27;;;;;;;;;;5018674;28;20205;-90
2023/09/04 09:57:19;;;;;;;499.42;483.70;;;;;;;;;;5019300;28;20639;-89
2023/09/04 09:59:47;;;;;;;519.33;502.58;;;;;;;;;;5018020;28;20194;-89
2023/09/04 10:02:18;;;;;;;546.47;528.50;;;;;;;;;;5020602;28;20735;-91
2023/09/04 10:04:45;;;;;;;910.30;646.90;;;;;;;;;;5017708;28;20197;-92
2023/09/04 10:07:15;;;;;;;1632.22;877.97;;;;;;;;;;5016710;28;20173;-91
2023/09/04 10:09:44;;;;;;;1999.90;999.90;;;;;;;;;;5017117;28;20212;-91
2023/09/04 10:12:13;;;;;;;1999.90;999.90;;;;;;;;;;5017737;28;20492;-91
2023/09/04 10:14:40;;;;;;;1999.90;999.90;;;;;;;;;;5016326;28;20208;-90
2023/09/04 10:17:08;;;;;;;1999.90;999.90;;;;;;;;;;5017498;28;20173;-90
2023/09/04 10:19:35;;;;;;;1999.90;999.90;;;;;;;;;;5010247;28;20197;-91
2023/09/04 10:22:07;;;;;;;1999.90;999.90;;;;;;;;;;4995841;28;20216;-91
2023/09/04 10:24:45;;;;;;;1999.90;999.90;;;;;;;;;;4995538;28;20185;-91
2023/09/04 10:27:12;;;;;;;1999.90;999.90;;;;;;;;;;4997841;28;20181;-92
2023/09/04 10:29:42;;;;;;;1999.90;999.90;;;;;;;;;;5004674;28;20694;-92
2023/09/04 10:32:11;;;;;;;1999.90;999.90;;;;;;;;;;5015851;28;20232;-92
2023/09/04 10:34:37;;;;;;;1999.90;999.90;;;;;;;;;;5017249;28;20528;-91
2023/09/04 10:37:03;;;;;;;1999.90;999.90;;;;;;;;;;5020860;28;20228;-91
2023/09/04 10:39:29;;;;;;;1999.90;999.90;;;;;;;;;;5018471;28;20178;-91
2023/09/04 10:41:56;;;;;;;1999.90;999.90;;;;;;;;;;5017270;28;20174;-93
2023/09/04 10:44:40;;;;;;;1999.90;999.90;;;;;;;;;;4998705;28;20213;-93
2023/09/04 10:47:06;;;;;;;1999.90;999.90;;;;;;;;;;4998192;28;20180;-92
2023/09/04 10:49:33;;;;;;;1999.90;999.90;;;;;;;;;;5000720;28;20186;-93
2023/09/04 10:51:59;;;;;;;1999.90;999.90;;;;;;;;;;5003604;28;20261;-90
2023/09/04 10:54:26;;;;;;;1999.90;999.90;;;;;;;;;;5010416;28;20230;-90
2023/09/04 10:56:59;;;;;;;1999.90;999.90;;;;;;;;;;5000570;28;20194;-91
2023/09/04 10:59:25;;;;;;;1999.90;999.90;;;;;;;;;;5000717;28;20182;-91
2023/09/04 11:01:51;;;;;;;1999.90;999.90;;;;;;;;;;5002651;28;20179;-90
2023/09/04 11:04:31;;;;;;;1999.90;999.90;;;;;;;;;;5019508;28;20173;-92
2023/09/04 11:07:16;;;;;;;1999.90;999.90;;;;;;;;;;5021391;28;20189;-90
2023/09/04 11:09:42;;;;;;;1999.90;999.90;;;;;;;;;;5021453;28;20209;-87
2023/09/04 11:12:26;;;;;;;1999.90;999.90;;;;;;;;;;5020979;28;20204;-85
2023/09/04 11:14:53;;;;;;;1999.90;999.90;;;;;;;;;;5003055;28;20206;-89
2023/09/04 11:17:22;;;;;;;1999.90;999.90;;;;;;;;;;5014343;28;20686;-90
2023/09/04 11:19:50;;;;;;;1999.90;999.90;;;;;;;;;;5028841;28;20197;-92
2023/09/04 11:22:20;;;;;;;1999.90;999.90;;;;;;;;;;5021745;28;20203;-91
2023/09/04 11:24:46;;;;;;;1999.90;999.90;;;;;;;;;;5020369;28;20221;-92
2023/09/04 11:27:12;;;;;;;1999.90;999.90;;;;;;;;;;5022272;28;20232;-89
2023/09/04 11:29:38;;;;;;;1999.90;999.90;;;;;;;;;;5019263;28;20209;-91
2023/09/04 11:32:05;;;;;;;1999.90;999.90;;;;;;;;;;5020392;28;20185;-92
2023/09/04 11:34:31;;;;;;;1999.90;999.90;;;;;;;;;;5020759;28;20694;-91
2023/09/04 11:36:58;;;;;;;1999.90;999.90;;;;;;;;;;5021162;28;20197;-92
2023/09/04 11:39:24;;;;;;;1999.90;999.90;;;;;;;;;;5021961;28;20182;-91
2023/09/04 11:41:50;;;;;;;1999.90;999.90;;;;;;;;;;5020839;28;20200;-93
2023/09/04 11:44:16;;;;;;;1999.90;999.90;;;;;;;;;;5025164;28;20174;-92
2023/09/04 11:46:43;;;;;;;1999.90;999.90;;;;;;;;;;5034673;28;20190;-93
2023/09/04 11:49:09;;;;;;;1999.90;999.90;;;;;;;;;;5037344;28;20189;-91
2023/09/04 11:51:36;;;;;;;1999.90;999.90;;;;;;;;;;5018799;28;20688;-91
2023/09/04 11:54:08;;;;;;;1999.90;999.90;;;;;;;;;;5015856;28;20188;-92
2023/09/04 11:56:35;;;;;;;1999.90;999.90;;;;;;;;;;5016882;28;20209;-93
2023/09/04 11:59:04;;;;;;;1999.90;999.90;;;;;;;;;;5016685;28;20285;-91
2023/09/04 12:01:30;;;;;;;1999.90;999.90;;;;;;;;;;5013781;28;20285;-91
2023/09/04 12:03:56;;;;;;;1999.90;999.90;;;;;;;;;;5016363;28;20212;-91
2023/09/04 12:06:25;;;;;;;1999.90;999.90;;;;;;;;;;5015006;28;20239;-93
2023/09/04 12:08:52;;;;;;;1999.90;999.90;;;;;;;;;;5013691;28;20211;-91
2023/09/04 12:11:18;;;;;;;1999.90;999.90;;;;;;;;;;5013964;28;20205;-93
2023/09/04 12:13:44;;;;;;;1999.90;999.90;;;;;;;;;;5013451;28;20277;-93
2023/09/04 12:16:11;;;;;;;1999.90;999.90;;;;;;;;;;5012771;28;20213;-92
2023/09/04 12:18:37;;;;;;;1999.90;999.90;;;;;;;;;;5015752;28;20365;-92
2023/09/04 12:21:08;;;;;;;1999.90;999.90;;;;;;;;;;5013891;28;20324;-92
2023/09/04 12:23:54;;;;;;;1999.90;999.90;;;;;;;;;;5015847;28;20194;-94
2023/09/04 12:26:21;;;;;;;1999.90;999.90;;;;;;;;;;5013176;28;20190;-92
2023/09/04 12:28:47;;;;;;;1999.90;999.90;;;;;;;;;;5014360;28;20227;-91
2023/09/04 12:31:13;;;;;;;1999.90;999.90;;;;;;;;;;5015600;28;20231;-92
2023/09/04 12:33:40;;;;;;;1999.90;999.90;;;;;;;;;;5013496;28;20213;-92
2023/09/04 12:36:08;;;;;;;1999.90;999.90;;;;;;;;;;5013386;28;20340;-92
2023/09/04 12:38:35;;;;;;;1999.90;999.90;;;;;;;;;;5013922;28;20610;-93
2023/09/04 12:41:01;;;;;;;1999.90;999.90;;;;;;;;;;5013076;28;20225;-93
2023/09/04 12:43:27;;;;;;;1999.90;999.90;;;;;;;;;;5013300;28;20610;-92
2023/09/04 12:45:53;;;;;;;1999.90;999.90;;;;;;;;;;5008342;28;20472;-93
2023/09/04 12:48:21;;;;;;;1999.90;999.90;;;;;;;;;;5015202;28;20193;-93
2023/09/04 12:50:48;;;;;;;1999.90;999.90;;;;;;;;;;5012924;28;20548;-92
2023/09/04 12:53:14;;;;;;;1999.90;999.90;;;;;;;;;;5009843;28;20326;-92
2023/09/04 12:55:40;;;;;;;1999.90;999.90;;;;;;;;;;5015799;28;20237;-92
2023/09/04 12:58:07;;;;;;;1999.90;999.90;;;;;;;;;;5013668;28;20182;-94
2023/09/04 13:00:33;;;;;;;1999.90;999.90;;;;;;;;;;5010101;28;20280;-93
2023/09/04 13:02:59;;;;;;;1999.90;999.90;;;;;;;;;;5012785;28;20272;-91
2023/09/04 13:05:25;;;;;;;1999.90;999.90;;;;;;;;;;5013569;28;20236;-92
2023/09/04 13:07:51;;;;;;;1999.90;999.90;;;;;;;;;;5013095;28;20690;-92
2023/09/04 13:10:17;;;;;;;1999.90;999.90;;;;;;;;;;5011864;28;20213;-92
2023/09/04 13:12:44;;;;;;;1999.90;999.90;;;;;;;;;;5013754;28;20663;-92
2023/09/04 13:15:10;;;;;;;1999.90;999.90;;;;;;;;;;5011691;28;20220;-92
2023/09/04 13:17:38;;;;;;;1999.90;999.90;;;;;;;;;;5013993;28;20213;-92
2023/09/04 13:20:05;;;;;;;1999.90;999.90;;;;;;;;;;5013256;28;20221;-88
2023/09/04 13:22:31;;;;;;;1999.90;999.90;;;;;;;;;;5011673;28;20209;-88
2023/09/04 13:24:57;;;;;;;1999.90;999.90;;;;;;;;;;5011875;28;20208;-90
2023/09/04 13:27:23;;;;;;;1999.90;999.90;;;;;;;;;;5011646;28;20840;-91
2023/09/04 13:29:49;;;;;;;1999.90;999.90;;;;;;;;;;5010235;28;20231;-90
2023/09/04 13:32:15;;;;;;;1999.90;999.90;;;;;;;;;;5011462;28;20284;-93
2023/09/04 13:34:41;;;;;;;1999.90;999.90;;;;;;;;;;5011957;28;20208;-91
2023/09/04 13:37:07;;;;;;;1999.90;999.90;;;;;;;;;;5011722;28;20193;-88
2023/09/04 13:39:33;;;;;;;1999.90;999.90;;;;;;;;;;5010971;28;20193;-90
2023/09/04 13:42:00;;;;;;;1999.90;999.90;;;;;;;;;;5010718;28;20208;-89
2023/09/04 13:44:27;;;;;;;1999.90;999.90;;;;;;;;;;5014061;28;20229;-89
2023/09/04 13:46:53;;;;;;;1999.90;999.90;;;;;;;;;;5016202;28;20177;-91